Time;durP1;ratioP1;P1;durP2;ratioP2;P2;SDS_P1;SDS_P2;PMS_P1;PMS_P2;Temp;Humidity;BMP_temperature;BMP_pressure;BME280_temperature;BME280_humidity;BME280_pressure;Samples;Min_cycle;Max_cycle;Signal;HPM_P1;HPM_P2
2023/04/06 00:00:28;;;;;;;25.73;24.13;;;;;;;;;;5021737;28;20216;-84
2023/04/06 00:02:55;;;;;;;26.58;24.35;;;;;;;;;;5022593;28;20216;-84
2023/04/06 00:05:22;;;;;;;25.30;23.73;;;;;;;;;;5018863;28;20213;-84
2023/04/06 00:07:52;;;;;;;25.17;23.67;;;;;;;;;;5019137;28;20205;-84
2023/04/06 00:10:19;;;;;;;26.83;24.92;;;;;;;;;;5020272;28;20203;-84
2023/04/06 00:12:46;;;;;;;26.38;24.48;;;;;;;;;;5018469;28;20266;-84
2023/04/06 00:15:13;;;;;;;25.45;23.80;;;;;;;;;;5018591;28;20287;-84
2023/04/06 00:17:40;;;;;;;24.52;23.10;;;;;;;;;;5018961;28;20206;-84
2023/04/06 00:20:08;;;;;;;24.98;23.58;;;;;;;;;;5021265;28;20240;-84
2023/04/06 00:22:35;;;;;;;25.30;23.60;;;;;;;;;;5019697;28;20604;-84
2023/04/06 00:25:04;;;;;;;24.55;23.15;;;;;;;;;;5019887;28;20663;-84
2023/04/06 00:27:31;;;;;;;24.83;23.30;;;;;;;;;;5019838;28;20712;-84
2023/04/06 00:29:58;;;;;;;25.13;23.55;;;;;;;;;;5018051;28;20231;-84
2023/04/06 00:32:25;;;;;;;25.00;23.40;;;;;;;;;;5019109;28;20194;-84
2023/04/06 00:34:52;;;;;;;25.02;23.52;;;;;;;;;;5019742;28;20239;-84
2023/04/06 00:37:19;;;;;;;25.98;23.92;;;;;;;;;;5018082;28;20273;-83
2023/04/06 00:39:46;;;;;;;25.73;24.13;;;;;;;;;;5019104;28;20232;-84
2023/04/06 00:42:15;;;;;;;26.13;24.23;;;;;;;;;;5017998;28;20243;-84
2023/04/06 00:44:42;;;;;;;25.40;23.80;;;;;;;;;;5017162;28;20204;-84
2023/04/06 00:47:10;;;;;;;25.08;23.27;;;;;;;;;;5030820;28;20191;-84
2023/04/06 00:49:37;;;;;;;25.55;23.75;;;;;;;;;;5019781;28;20231;-83
2023/04/06 00:52:04;;;;;;;25.95;24.17;;;;;;;;;;5022226;28;20262;-84
2023/04/06 00:54:31;;;;;;;26.00;24.30;;;;;;;;;;5019207;28;20221;-84
2023/04/06 00:56:58;;;;;;;26.00;24.40;;;;;;;;;;5022193;28;20199;-84
2023/04/06 00:59:29;;;;;;;25.17;23.52;;;;;;;;;;5017483;28;20235;-84
2023/04/06 01:01:56;;;;;;;24.63;23.08;;;;;;;;;;5016900;28;20216;-84
2023/04/06 01:04:23;;;;;;;25.60;23.83;;;;;;;;;;5017042;28;20210;-84
2023/04/06 01:06:50;;;;;;;25.70;24.00;;;;;;;;;;5016788;28;20259;-84
2023/04/06 01:09:18;;;;;;;24.58;22.98;;;;;;;;;;5016999;28;20223;-84
2023/04/06 01:11:45;;;;;;;25.20;23.55;;;;;;;;;;5016795;28;20256;-84
2023/04/06 01:14:12;;;;;;;25.10;23.40;;;;;;;;;;5017297;28;20697;-84
2023/04/06 01:16:40;;;;;;;24.23;22.70;;;;;;;;;;5021986;28;20206;-84
2023/04/06 01:19:11;;;;;;;25.55;23.80;;;;;;;;;;5023448;28;20259;-84
2023/04/06 01:21:38;;;;;;;25.90;24.33;;;;;;;;;;5023163;28;20207;-84
2023/04/06 01:24:07;;;;;;;25.88;24.33;;;;;;;;;;5033116;28;20208;-84
2023/04/06 01:26:35;;;;;;;25.02;23.52;;;;;;;;;;5036206;28;20234;-84
2023/04/06 01:29:03;;;;;;;26.13;24.63;;;;;;;;;;5034909;28;20231;-84
2023/04/06 01:31:33;;;;;;;24.85;23.35;;;;;;;;;;5033336;28;20269;-84
2023/04/06 01:34:00;;;;;;;25.08;23.58;;;;;;;;;;5030763;28;20228;-84
2023/04/06 01:36:27;;;;;;;25.15;23.65;;;;;;;;;;5028798;28;20210;-84
2023/04/06 01:38:55;;;;;;;25.83;24.13;;;;;;;;;;5028911;28;20239;-84
2023/04/06 01:41:24;;;;;;;25.13;23.60;;;;;;;;;;5028165;28;20203;-84
2023/04/06 01:43:54;;;;;;;25.40;23.65;;;;;;;;;;5029834;28;20291;-84
2023/04/06 01:46:21;;;;;;;26.40;24.70;;;;;;;;;;5027931;28;20322;-84
2023/04/06 01:48:48;;;;;;;25.60;23.88;;;;;;;;;;5028849;28;20229;-84
2023/04/06 01:51:15;;;;;;;25.95;24.15;;;;;;;;;;5028275;28;20210;-84
2023/04/06 01:53:42;;;;;;;25.92;24.23;;;;;;;;;;5028728;28;20222;-84
2023/04/06 01:56:10;;;;;;;25.58;24.02;;;;;;;;;;5027595;28;20207;-84
2023/04/06 01:58:39;;;;;;;26.27;24.35;;;;;;;;;;5034619;28;20602;-84
2023/04/06 02:01:06;;;;;;;25.85;24.25;;;;;;;;;;5031496;28;20211;-84
2023/04/06 02:03:33;;;;;;;26.25;24.55;;;;;;;;;;5031743;28;20194;-84
2023/04/06 02:06:00;;;;;;;28.13;26.35;;;;;;;;;;5028777;28;20257;-84
2023/04/06 02:08:27;;;;;;;27.38;25.27;;;;;;;;;;5027069;28;20222;-84
2023/04/06 02:10:55;;;;;;;26.00;24.40;;;;;;;;;;5028416;28;20208;-84
2023/04/06 02:13:23;;;;;;;25.70;24.10;;;;;;;;;;5029210;28;20222;-84
2023/04/06 02:15:52;;;;;;;25.60;24.00;;;;;;;;;;5027453;28;20315;-84
2023/04/06 02:18:20;;;;;;;26.10;24.55;;;;;;;;;;5026833;28;20219;-84
2023/04/06 02:20:47;;;;;;;26.92;25.33;;;;;;;;;;5030047;28;20688;-84
2023/04/06 02:23:14;;;;;;;28.10;26.23;;;;;;;;;;5026467;28;20261;-84
2023/04/06 02:25:41;;;;;;;26.88;25.25;;;;;;;;;;5025265;28;20293;-84
2023/04/06 02:28:08;;;;;;;25.58;23.92;;;;;;;;;;5017660;28;20254;-84
2023/04/06 02:30:35;;;;;;;26.27;24.48;;;;;;;;;;5019185;28;20638;-84
2023/04/06 02:33:04;;;;;;;26.50;24.77;;;;;;;;;;5018807;28;20209;-84
2023/04/06 02:35:32;;;;;;;26.45;24.55;;;;;;;;;;5018548;28;20280;-84
2023/04/06 02:37:59;;;;;;;28.88;26.60;;;;;;;;;;5017870;28;20250;-84
2023/04/06 02:40:26;;;;;;;27.50;25.30;;;;;;;;;;5018367;28;20353;-84
2023/04/06 02:42:53;;;;;;;25.77;24.08;;;;;;;;;;5019391;28;20262;-84
2023/04/06 02:45:20;;;;;;;26.90;25.02;;;;;;;;;;5018545;28;20207;-84
2023/04/06 02:47:47;;;;;;;28.27;26.23;;;;;;;;;;5017279;28;20215;-84
2023/04/06 02:50:16;;;;;;;26.20;24.35;;;;;;;;;;5018319;28;20558;-84
2023/04/06 02:52:43;;;;;;;26.05;24.40;;;;;;;;;;5018182;28;20214;-84
2023/04/06 02:55:10;;;;;;;26.88;25.08;;;;;;;;;;5017731;28;20224;-84
2023/04/06 02:57:37;;;;;;;26.42;24.50;;;;;;;;;;5017507;28;20235;-84
2023/04/06 03:00:04;;;;;;;27.45;25.65;;;;;;;;;;5017691;28;20262;-84
2023/04/06 03:02:31;;;;;;;26.40;24.70;;;;;;;;;;5018020;28;20206;-84
2023/04/06 03:04:58;;;;;;;26.45;24.67;;;;;;;;;;5018455;28;20664;-84
2023/04/06 03:07:27;;;;;;;26.73;24.98;;;;;;;;;;5017326;28;20392;-84
2023/04/06 03:09:54;;;;;;;26.48;24.58;;;;;;;;;;5017860;28;20229;-84
2023/04/06 03:12:21;;;;;;;26.55;24.75;;;;;;;;;;5018202;28;20207;-84
2023/04/06 03:14:48;;;;;;;27.73;25.00;;;;;;;;;;5018120;28;20224;-83
2023/04/06 03:17:15;;;;;;;27.88;25.77;;;;;;;;;;5017510;28;20730;-84
2023/04/06 03:19:42;;;;;;;26.60;24.58;;;;;;;;;;5017823;28;20241;-84
2023/04/06 03:22:09;;;;;;;26.35;24.65;;;;;;;;;;5017765;28;20210;-84
2023/04/06 03:24:37;;;;;;;27.63;25.65;;;;;;;;;;5017152;28;20211;-83
2023/04/06 03:27:06;;;;;;;26.33;24.52;;;;;;;;;;5017393;28;20668;-83
2023/04/06 03:29:33;;;;;;;26.55;24.85;;;;;;;;;;5017767;28;20226;-84
2023/04/06 03:32:00;;;;;;;26.05;24.23;;;;;;;;;;5018122;28;20211;-84
2023/04/06 03:34:27;;;;;;;26.92;25.08;;;;;;;;;;5018011;28;20275;-84
2023/04/06 03:36:54;;;;;;;27.30;25.42;;;;;;;;;;5017254;28;20216;-84
2023/04/06 03:39:21;;;;;;;26.65;24.95;;;;;;;;;;5017710;28;20249;-83
2023/04/06 03:41:49;;;;;;;27.15;25.45;;;;;;;;;;5017806;28;20206;-84
2023/04/06 03:44:17;;;;;;;27.15;25.40;;;;;;;;;;5017486;28;20635;-84
2023/04/06 03:46:45;;;;;;;28.40;26.50;;;;;;;;;;5024497;28;20245;-84
2023/04/06 03:49:12;;;;;;;27.85;25.85;;;;;;;;;;5017507;28;20734;-83
2023/04/06 03:51:40;;;;;;;26.10;24.50;;;;;;;;;;5017876;28;20577;-84
2023/04/06 03:54:07;;;;;;;26.45;24.58;;;;;;;;;;5017079;28;20269;-84
2023/04/06 03:56:34;;;;;;;25.33;23.42;;;;;;;;;;5016681;28;20666;-84
2023/04/06 03:59:02;;;;;;;27.23;25.42;;;;;;;;;;5016654;28;20669;-84
2023/04/06 04:01:29;;;;;;;26.70;24.90;;;;;;;;;;5017319;28;20560;-84
2023/04/06 04:03:56;;;;;;;26.73;24.92;;;;;;;;;;5017316;28;20276;-84
2023/04/06 04:06:23;;;;;;;27.80;25.45;;;;;;;;;;5015995;28;20202;-84
2023/04/06 04:08:50;;;;;;;27.00;25.13;;;;;;;;;;5017169;28;20642;-84
2023/04/06 04:11:17;;;;;;;25.98;24.38;;;;;;;;;;5017048;28;20271;-84
2023/04/06 04:13:44;;;;;;;26.63;24.83;;;;;;;;;;5016543;28;20230;-84
2023/04/06 04:16:12;;;;;;;29.25;26.65;;;;;;;;;;5015840;28;20243;-84
2023/04/06 04:18:39;;;;;;;27.52;25.65;;;;;;;;;;5016138;28;20226;-84
2023/04/06 04:21:06;;;;;;;27.10;25.40;;;;;;;;;;5017220;28;20576;-83
2023/04/06 04:23:33;;;;;;;28.92;26.52;;;;;;;;;;5016811;28;20658;-84
2023/04/06 04:26:00;;;;;;;26.85;25.10;;;;;;;;;;5016579;28;20203;-84
2023/04/06 04:28:27;;;;;;;27.45;25.45;;;;;;;;;;5017030;28;20232;-84
2023/04/06 04:30:55;;;;;;;28.35;26.45;;;;;;;;;;5016962;28;20208;-84
2023/04/06 04:33:23;;;;;;;26.90;25.00;;;;;;;;;;5016262;28;20667;-84
2023/04/06 04:35:50;;;;;;;28.25;26.15;;;;;;;;;;5015404;28;20225;-83
2023/04/06 04:38:17;;;;;;;26.30;24.50;;;;;;;;;;5015970;28;20222;-84
2023/04/06 04:40:45;;;;;;;25.75;23.95;;;;;;;;;;5016971;28;20183;-84
2023/04/06 04:43:12;;;;;;;28.15;26.13;;;;;;;;;;5016722;28;20217;-84
2023/04/06 04:45:39;;;;;;;26.13;24.52;;;;;;;;;;5015909;28;20231;-80
2023/04/06 04:48:07;;;;;;;28.50;26.50;;;;;;;;;;5016217;28;20714;-80
2023/04/06 04:50:36;;;;;;;27.60;25.70;;;;;;;;;;5015727;28;20220;-79
2023/04/06 04:53:05;;;;;;;26.67;24.98;;;;;;;;;;5016321;28;20205;-80
2023/04/06 04:55:32;;;;;;;27.15;25.42;;;;;;;;;;5016063;28;20259;-79
2023/04/06 04:57:59;;;;;;;27.20;25.30;;;;;;;;;;5017821;28;20215;-80
2023/04/06 05:00:26;;;;;;;27.75;25.50;;;;;;;;;;5016783;28;20201;-80
2023/04/06 05:02:53;;;;;;;27.05;25.25;;;;;;;;;;5016279;28;20289;-80
2023/04/06 05:05:20;;;;;;;27.67;25.83;;;;;;;;;;5016115;28;20217;-79
2023/04/06 05:07:49;;;;;;;28.80;26.70;;;;;;;;;;5015683;28;20214;-80
2023/04/06 05:10:16;;;;;;;27.60;25.70;;;;;;;;;;5015752;28;20239;-80
2023/04/06 05:12:43;;;;;;;26.33;24.33;;;;;;;;;;5016322;28;20208;-80
2023/04/06 05:15:11;;;;;;;27.02;24.90;;;;;;;;;;5016279;28;20239;-82
2023/04/06 05:17:38;;;;;;;26.98;25.20;;;;;;;;;;5015589;28;20213;-80
2023/04/06 05:20:05;;;;;;;26.90;24.90;;;;;;;;;;5015400;28;20235;-80
2023/04/06 05:22:32;;;;;;;25.83;24.02;;;;;;;;;;5016260;28;20259;-80
2023/04/06 05:25:01;;;;;;;25.23;23.45;;;;;;;;;;5016125;28;20207;-80
2023/04/06 05:27:28;;;;;;;26.50;24.52;;;;;;;;;;5015518;28;20210;-80
2023/04/06 05:29:55;;;;;;;26.35;24.45;;;;;;;;;;5016146;28;20230;-80
2023/04/06 05:32:24;;;;;;;27.50;25.50;;;;;;;;;;5015912;28;20205;-80
2023/04/06 05:34:51;;;;;;;26.88;24.88;;;;;;;;;;5016260;28;20211;-79
2023/04/06 05:37:18;;;;;;;26.27;24.50;;;;;;;;;;5015336;28;20206;-79
2023/04/06 05:39:45;;;;;;;26.50;24.75;;;;;;;;;;5017479;28;20226;-80
2023/04/06 05:42:13;;;;;;;25.95;24.35;;;;;;;;;;5036847;28;20221;-80
2023/04/06 05:44:40;;;;;;;27.17;25.02;;;;;;;;;;5036875;28;20197;-79
2023/04/06 05:47:07;;;;;;;26.00;24.20;;;;;;;;;;5025911;28;20662;-80
2023/04/06 05:49:34;;;;;;;24.55;22.85;;;;;;;;;;5019510;28;20230;-80
2023/04/06 05:52:01;;;;;;;26.70;24.90;;;;;;;;;;5019202;28;20207;-80
2023/04/06 05:54:28;;;;;;;26.70;25.00;;;;;;;;;;5019196;28;20208;-80
2023/04/06 05:56:55;;;;;;;26.98;25.27;;;;;;;;;;5018303;28;20238;-80
2023/04/06 05:59:24;;;;;;;27.30;25.30;;;;;;;;;;5018329;28;20281;-80
2023/04/06 06:01:51;;;;;;;26.50;24.65;;;;;;;;;;5019065;28;20209;-80
2023/04/06 06:04:18;;;;;;;25.85;24.00;;;;;;;;;;5021450;28;20635;-80
2023/04/06 06:06:45;;;;;;;26.95;25.15;;;;;;;;;;5020718;28;20237;-80
2023/04/06 06:09:12;;;;;;;27.30;25.33;;;;;;;;;;5020864;28;20214;-79
2023/04/06 06:11:40;;;;;;;26.48;24.05;;;;;;;;;;5021104;28;20203;-80
2023/04/06 06:14:07;;;;;;;27.65;25.65;;;;;;;;;;5020734;28;20706;-80
2023/04/06 06:16:36;;;;;;;25.85;24.02;;;;;;;;;;5019878;28;20228;-80
2023/04/06 06:19:03;;;;;;;26.35;24.65;;;;;;;;;;5019654;28;20253;-80
2023/04/06 06:21:30;;;;;;;25.33;23.67;;;;;;;;;;5020779;28;20199;-79
2023/04/06 06:23:57;;;;;;;26.05;24.25;;;;;;;;;;5020183;28;20246;-79
2023/04/06 06:26:24;;;;;;;26.98;24.95;;;;;;;;;;5019781;28;20690;-80
2023/04/06 06:28:51;;;;;;;26.17;24.27;;;;;;;;;;5020002;28;20232;-80
2023/04/06 06:31:20;;;;;;;26.38;24.63;;;;;;;;;;5020921;28;20211;-80
2023/04/06 06:33:50;;;;;;;27.20;25.30;;;;;;;;;;5019829;28;20208;-80
2023/04/06 06:36:17;;;;;;;25.60;23.80;;;;;;;;;;5019295;28;20264;-80
2023/04/06 06:38:44;;;;;;;26.05;24.30;;;;;;;;;;5019511;28;20229;-79
2023/04/06 06:41:11;;;;;;;27.98;25.88;;;;;;;;;;5020471;28;20215;-80
2023/04/06 06:43:38;;;;;;;26.75;24.90;;;;;;;;;;5019135;28;20269;-80
2023/04/06 06:46:05;;;;;;;26.65;24.85;;;;;;;;;;5018399;28;20620;-79
2023/04/06 06:48:33;;;;;;;27.40;25.50;;;;;;;;;;5019012;28;20231;-79
2023/04/06 06:51:01;;;;;;;26.45;24.48;;;;;;;;;;5018730;28;20563;-80
2023/04/06 06:53:28;;;;;;;27.88;25.42;;;;;;;;;;5017572;28;20216;-80
2023/04/06 06:55:55;;;;;;;27.58;25.77;;;;;;;;;;5017166;28;20214;-80
2023/04/06 06:58:23;;;;;;;29.40;27.05;;;;;;;;;;5017804;28;20286;-80
2023/04/06 07:00:50;;;;;;;27.57;25.77;;;;;;;;;;5018155;28;20197;-79
2023/04/06 07:03:17;;;;;;;27.60;25.60;;;;;;;;;;5018380;28;20452;-79
2023/04/06 07:05:49;;;;;;;27.92;26.02;;;;;;;;;;5017016;28;20256;-80
2023/04/06 07:08:18;;;;;;;27.52;25.55;;;;;;;;;;5017761;28;20285;-80
2023/04/06 07:10:45;;;;;;;29.20;27.10;;;;;;;;;;5017532;28;20213;-80
2023/04/06 07:13:12;;;;;;;28.23;26.17;;;;;;;;;;5017673;28;20654;-80
2023/04/06 07:15:39;;;;;;;27.83;25.70;;;;;;;;;;5017380;28;20229;-80
2023/04/06 07:18:06;;;;;;;27.23;25.33;;;;;;;;;;5017539;28;20234;-78
2023/04/06 07:20:33;;;;;;;27.13;24.90;;;;;;;;;;5017726;28;20322;-79
2023/04/06 07:23:00;;;;;;;29.02;27.02;;;;;;;;;;5017923;28;20201;-79
2023/04/06 07:25:29;;;;;;;26.40;24.60;;;;;;;;;;5016931;28;20206;-80
2023/04/06 07:27:56;;;;;;;26.85;24.92;;;;;;;;;;5020154;28;20567;-80
2023/04/06 07:30:24;;;;;;;27.52;25.30;;;;;;;;;;5019721;28;20204;-80
2023/04/06 07:32:51;;;;;;;26.83;25.02;;;;;;;;;;5020014;28;20237;-80
2023/04/06 07:35:18;;;;;;;25.95;24.15;;;;;;;;;;5019904;28;20208;-80
2023/04/06 07:37:46;;;;;;;26.63;24.80;;;;;;;;;;5019601;28;20627;-79
2023/04/06 07:40:13;;;;;;;27.55;25.65;;;;;;;;;;5019692;28;20219;-80
2023/04/06 07:42:41;;;;;;;26.65;24.42;;;;;;;;;;5019581;28;20212;-80
2023/04/06 07:45:09;;;;;;;27.08;25.17;;;;;;;;;;5019018;28;20670;-80
2023/04/06 07:47:36;;;;;;;26.05;24.13;;;;;;;;;;5019011;28;20213;-80
2023/04/06 07:50:03;;;;;;;26.95;24.23;;;;;;;;;;5019160;28;20229;-80
2023/04/06 07:52:31;;;;;;;26.88;24.95;;;;;;;;;;5018829;28;20205;-80
2023/04/06 07:54:58;;;;;;;26.33;24.50;;;;;;;;;;5018989;28;20209;-80
2023/04/06 07:57:25;;;;;;;26.45;24.65;;;;;;;;;;5017911;28;20232;-80
2023/04/06 07:59:54;;;;;;;27.07;25.17;;;;;;;;;;5018135;28;20225;-80
2023/04/06 08:02:21;;;;;;;27.85;25.85;;;;;;;;;;5018353;28;20439;-79
2023/04/06 08:04:48;;;;;;;26.58;24.88;;;;;;;;;;5017919;28;20216;-80
2023/04/06 08:07:15;;;;;;;27.10;25.15;;;;;;;;;;5018274;28;20687;-79
2023/04/06 08:09:42;;;;;;;27.60;25.60;;;;;;;;;;5017565;28;20230;-80
2023/04/06 08:12:09;;;;;;;27.60;25.60;;;;;;;;;;5018015;28;20427;-80
2023/04/06 08:14:36;;;;;;;26.83;24.90;;;;;;;;;;5018149;28;20220;-80
2023/04/06 08:17:05;;;;;;;27.70;25.77;;;;;;;;;;5017692;28;20316;-79
2023/04/06 08:19:32;;;;;;;26.95;25.08;;;;;;;;;;5017949;28;20462;-80
2023/04/06 08:21:59;;;;;;;26.60;24.90;;;;;;;;;;5017768;28;20289;-80
2023/04/06 08:24:25;;;;;;;27.80;25.77;;;;;;;;;;5017964;28;20263;-80
2023/04/06 08:26:52;;;;;;;26.83;25.03;;;;;;;;;;5015713;28;20428;-80
2023/04/06 08:29:20;;;;;;;27.80;25.70;;;;;;;;;;5017681;28;20531;-80
2023/04/06 08:31:47;;;;;;;29.70;27.33;;;;;;;;;;5017628;28;20451;-80
2023/04/06 08:34:15;;;;;;;27.05;25.10;;;;;;;;;;5017083;28;20448;-80
2023/04/06 08:36:42;;;;;;;28.55;26.35;;;;;;;;;;5016174;28;20697;-80
2023/04/06 08:39:09;;;;;;;27.63;25.52;;;;;;;;;;5016712;28;20721;-80
2023/04/06 08:41:36;;;;;;;29.40;27.15;;;;;;;;;;5016975;28;20205;-80
2023/04/06 08:44:04;;;;;;;27.63;25.80;;;;;;;;;;5016565;28;20206;-79
2023/04/06 08:46:32;;;;;;;29.90;27.60;;;;;;;;;;5016048;28;20448;-79
2023/04/06 08:49:00;;;;;;;28.00;26.10;;;;;;;;;;5017163;28;20710;-80
2023/04/06 08:51:29;;;;;;;28.05;26.15;;;;;;;;;;5017253;28;20498;-80
2023/04/06 08:53:57;;;;;;;29.70;27.30;;;;;;;;;;5017526;28;20205;-79
2023/04/06 08:56:24;;;;;;;27.80;25.90;;;;;;;;;;5015235;28;20507;-79
2023/04/06 08:58:52;;;;;;;28.00;26.10;;;;;;;;;;5015943;28;20764;-80
2023/04/06 09:01:22;;;;;;;29.37;27.07;;;;;;;;;;5016722;28;20427;-80
2023/04/06 09:03:50;;;;;;;29.23;27.03;;;;;;;;;;5017057;28;20996;-80
2023/04/06 09:06:18;;;;;;;25.73;24.03;;;;;;;;;;5014789;28;20961;-79
2023/04/06 09:08:46;;;;;;;26.73;24.80;;;;;;;;;;5014729;28;20799;-80
2023/04/06 09:11:13;;;;;;;24.80;23.00;;;;;;;;;;5017216;28;20489;-80
2023/04/06 09:13:47;;;;;;;27.60;25.60;;;;;;;;;;5016913;28;20427;-80
2023/04/06 09:16:14;;;;;;;26.07;24.37;;;;;;;;;;5015948;28;20485;-79
2023/04/06 09:18:41;;;;;;;28.17;25.97;;;;;;;;;;5016520;28;20857;-79
2023/04/06 09:21:08;;;;;;;27.93;25.83;;;;;;;;;;5016437;28;20428;-79
2023/04/06 09:23:36;;;;;;;27.97;25.87;;;;;;;;;;5015465;28;20437;-79
2023/04/06 09:26:11;;;;;;;25.73;24.00;;;;;;;;;;5015164;28;20515;-79
2023/04/06 09:28:46;;;;;;;29.30;27.20;;;;;;;;;;5017347;28;20832;-80
2023/04/06 09:31:13;;;;;;;28.03;26.10;;;;;;;;;;5016076;28;20435;-79
2023/04/06 09:33:40;;;;;;;29.00;26.90;;;;;;;;;;5017435;28;20427;-79
2023/04/06 09:36:09;;;;;;;28.53;26.50;;;;;;;;;;5016695;28;20545;-79
2023/04/06 09:38:36;;;;;;;26.97;25.07;;;;;;;;;;5020509;28;20563;-80
2023/04/06 09:41:03;;;;;;;28.23;25.90;;;;;;;;;;5020496;28;20487;-79
2023/04/06 09:43:31;;;;;;;29.27;27.07;;;;;;;;;;5020374;28;20987;-80
2023/04/06 09:45:59;;;;;;;29.87;27.63;;;;;;;;;;5019627;28;20929;-80
2023/04/06 09:48:27;;;;;;;28.77;26.57;;;;;;;;;;5020042;28;20442;-79
2023/04/06 09:50:55;;;;;;;30.17;27.63;;;;;;;;;;5019103;28;20932;-80
2023/04/06 09:53:25;;;;;;;29.00;27.00;;;;;;;;;;5019865;28;20819;-79
2023/04/06 09:55:53;;;;;;;30.40;28.00;;;;;;;;;;5019363;28;20437;-80
2023/04/06 09:58:25;;;;;;;29.37;27.03;;;;;;;;;;5020569;28;20846;-79
2023/04/06 10:00:59;;;;;;;30.80;28.40;;;;;;;;;;5027357;28;20431;-80
2023/04/06 10:03:30;;;;;;;30.90;28.60;;;;;;;;;;5037290;28;20457;-79
2023/04/06 10:05:59;;;;;;;29.23;27.03;;;;;;;;;;5034550;28;20433;-79
2023/04/06 10:08:27;;;;;;;26.13;24.20;;;;;;;;;;5022227;28;20811;-79
2023/04/06 10:10:54;;;;;;;29.10;26.93;;;;;;;;;;5022568;28;20456;-80
2023/04/06 10:13:21;;;;;;;29.50;27.40;;;;;;;;;;5021697;28;20464;-80
2023/04/06 10:15:49;;;;;;;30.07;27.73;;;;;;;;;;5021103;28;20427;-80
2023/04/06 10:18:17;;;;;;;29.60;27.40;;;;;;;;;;5021439;28;20546;-80
2023/04/06 10:20:47;;;;;;;30.17;28.07;;;;;;;;;;5021547;28;20456;-79
2023/04/06 10:23:15;;;;;;;30.30;28.10;;;;;;;;;;5021076;28;20948;-80
2023/04/06 10:25:54;;;;;;;29.67;27.40;;;;;;;;;;5020771;28;20459;-81
2023/04/06 10:28:21;;;;;;;30.10;27.90;;;;;;;;;;5021359;28;20480;-80
2023/04/06 10:30:48;;;;;;;30.83;28.53;;;;;;;;;;5020657;28;20415;-80
2023/04/06 10:33:15;;;;;;;30.40;28.30;;;;;;;;;;5020630;28;20780;-80
2023/04/06 10:35:43;;;;;;;31.53;29.13;;;;;;;;;;5023941;28;20452;-80
2023/04/06 10:38:11;;;;;;;33.10;30.87;;;;;;;;;;5019022;28;20528;-80
2023/04/06 10:40:39;;;;;;;32.33;29.93;;;;;;;;;;5017926;28;20461;-80
2023/04/06 10:43:09;;;;;;;31.97;29.43;;;;;;;;;;5018166;28;20457;-80
2023/04/06 10:45:37;;;;;;;29.70;27.50;;;;;;;;;;5019503;28;20464;-80
2023/04/06 10:48:14;;;;;;;29.70;27.50;;;;;;;;;;5016845;28;20469;-80
2023/04/06 10:50:41;;;;;;;28.10;25.73;;;;;;;;;;5019630;28;20411;-80
2023/04/06 10:53:09;;;;;;;29.60;27.50;;;;;;;;;;5018904;28;20463;-79
2023/04/06 10:55:40;;;;;;;29.57;27.47;;;;;;;;;;5017407;28;20435;-81
2023/04/06 10:58:08;;;;;;;31.30;28.80;;;;;;;;;;5019954;28;20501;-81
2023/04/06 11:00:35;;;;;;;29.00;26.90;;;;;;;;;;5018203;28;20449;-80
2023/04/06 11:03:02;;;;;;;31.07;28.57;;;;;;;;;;5017511;28;20477;-80
2023/04/06 11:05:29;;;;;;;30.50;28.10;;;;;;;;;;5018225;28;20933;-80
2023/04/06 11:07:57;;;;;;;30.30;27.90;;;;;;;;;;5020511;28;20456;-80
2023/04/06 11:10:25;;;;;;;31.47;29.10;;;;;;;;;;5017549;28;20479;-81
2023/04/06 11:12:56;;;;;;;32.07;29.40;;;;;;;;;;5018154;28;20940;-80
2023/04/06 11:15:23;;;;;;;31.60;29.10;;;;;;;;;;5019564;28;20477;-80
2023/04/06 11:17:50;;;;;;;32.53;30.10;;;;;;;;;;5017773;28;20784;-80
2023/04/06 11:20:19;;;;;;;30.33;28.07;;;;;;;;;;5019871;28;20460;-80
2023/04/06 11:22:49;;;;;;;32.87;30.27;;;;;;;;;;5017820;28;20431;-79
2023/04/06 11:25:17;;;;;;;34.43;31.60;;;;;;;;;;5018069;28;20514;-80
2023/04/06 11:27:46;;;;;;;33.40;30.50;;;;;;;;;;5017091;28;20539;-80
2023/04/06 11:30:14;;;;;;;31.47;29.13;;;;;;;;;;5019355;28;20439;-79
2023/04/06 11:32:42;;;;;;;31.47;28.87;;;;;;;;;;5019640;28;20422;-79
2023/04/06 11:35:09;;;;;;;30.97;28.50;;;;;;;;;;5020085;28;20486;-80
2023/04/06 11:37:36;;;;;;;30.73;28.43;;;;;;;;;;5021097;28;20467;-81
2023/04/06 11:40:04;;;;;;;30.90;28.40;;;;;;;;;;5021804;28;20548;-80
2023/04/06 11:42:32;;;;;;;28.30;26.10;;;;;;;;;;5020835;28;20907;-80
2023/04/06 11:45:01;;;;;;;30.80;28.30;;;;;;;;;;5020738;28;20522;-80
2023/04/06 11:47:29;;;;;;;32.37;29.33;;;;;;;;;;5018711;28;20451;-80
2023/04/06 11:49:58;;;;;;;31.57;28.60;;;;;;;;;;5023650;28;20539;-80
2023/04/06 11:52:26;;;;;;;32.47;29.80;;;;;;;;;;5024099;28;20443;-80
2023/04/06 11:54:54;;;;;;;31.63;28.93;;;;;;;;;;5023372;28;20412;-80
2023/04/06 11:57:22;;;;;;;31.60;28.83;;;;;;;;;;5022892;28;20463;-81
2023/04/06 11:59:49;;;;;;;30.00;27.50;;;;;;;;;;5022725;28;20472;-80
2023/04/06 12:02:18;;;;;;;30.73;28.17;;;;;;;;;;5022608;28;20502;-81
2023/04/06 12:04:45;;;;;;;31.53;29.03;;;;;;;;;;5024245;28;20447;-80
2023/04/06 12:07:12;;;;;;;25.90;23.90;;;;;;;;;;5020706;28;20423;-80
2023/04/06 12:09:39;;;;;;;29.47;27.03;;;;;;;;;;5019499;28;20968;-80
2023/04/06 12:12:07;;;;;;;30.23;27.93;;;;;;;;;;5020473;28;20415;-80
2023/04/06 12:14:34;;;;;;;32.43;29.70;;;;;;;;;;5023152;28;20460;-80
2023/04/06 12:17:01;;;;;;;29.90;27.50;;;;;;;;;;5022650;28;20474;-80
2023/04/06 12:19:29;;;;;;;27.70;25.40;;;;;;;;;;5023301;28;20443;-80
2023/04/06 12:21:57;;;;;;;27.47;25.57;;;;;;;;;;5020352;28;21043;-80
2023/04/06 12:24:24;;;;;;;30.07;27.80;;;;;;;;;;5020841;28;20430;-80
2023/04/06 12:26:51;;;;;;;28.80;26.67;;;;;;;;;;5019663;28;20574;-80
2023/04/06 12:29:18;;;;;;;29.10;26.80;;;;;;;;;;5021604;28;20435;-80
2023/04/06 12:31:46;;;;;;;29.63;27.43;;;;;;;;;;5019526;28;20463;-79
2023/04/06 12:34:13;;;;;;;29.10;26.90;;;;;;;;;;5018513;28;20771;-79
2023/04/06 12:36:41;;;;;;;28.73;26.43;;;;;;;;;;5017958;28;20431;-80
2023/04/06 12:39:10;;;;;;;29.13;26.80;;;;;;;;;;5019638;28;20494;-80
2023/04/06 12:41:40;;;;;;;31.50;29.10;;;;;;;;;;5020263;28;20523;-80
2023/04/06 12:44:07;;;;;;;29.83;27.67;;;;;;;;;;5022585;28;20448;-78
2023/04/06 12:46:34;;;;;;;29.30;27.00;;;;;;;;;;5024984;28;20432;-80
2023/04/06 12:49:02;;;;;;;28.77;26.60;;;;;;;;;;5034610;28;20466;-80
2023/04/06 12:51:30;;;;;;;31.33;28.93;;;;;;;;;;5024927;28;20851;-80
2023/04/06 12:53:59;;;;;;;27.50;25.43;;;;;;;;;;5020531;28;20462;-80
2023/04/06 12:56:26;;;;;;;29.97;27.57;;;;;;;;;;5018746;28;20459;-79
2023/04/06 12:58:53;;;;;;;28.80;26.47;;;;;;;;;;5018947;28;20997;-80
2023/04/06 13:01:21;;;;;;;30.87;28.53;;;;;;;;;;5019140;28;20435;-80
2023/04/06 13:03:48;;;;;;;28.30;26.23;;;;;;;;;;5019173;28;20415;-80
2023/04/06 13:06:15;;;;;;;31.13;28.73;;;;;;;;;;5022925;28;20462;-81
2023/04/06 13:08:42;;;;;;;32.10;29.60;;;;;;;;;;5018388;28;20531;-80
2023/04/06 13:11:10;;;;;;;32.53;29.87;;;;;;;;;;5018044;28;20435;-79
2023/04/06 13:13:37;;;;;;;32.03;29.53;;;;;;;;;;5021886;28;20492;-80
2023/04/06 13:16:05;;;;;;;31.17;28.67;;;;;;;;;;5021267;28;20457;-80
2023/04/06 13:18:34;;;;;;;31.30;29.00;;;;;;;;;;5018461;28;21018;-80
2023/04/06 13:21:01;;;;;;;30.83;28.40;;;;;;;;;;5018906;28;20470;-80
2023/04/06 13:23:28;;;;;;;30.27;27.73;;;;;;;;;;5018640;28;20469;-79
2023/04/06 13:25:59;;;;;;;30.30;27.70;;;;;;;;;;5017926;28;20431;-79
2023/04/06 13:28:27;;;;;;;29.87;27.43;;;;;;;;;;5018455;28;20468;-80
2023/04/06 13:30:55;;;;;;;30.73;28.30;;;;;;;;;;5018138;28;20426;-79
2023/04/06 13:33:22;;;;;;;31.23;28.90;;;;;;;;;;5018849;28;20463;-80
2023/04/06 13:35:49;;;;;;;31.13;28.73;;;;;;;;;;5020322;28;20456;-80
2023/04/06 13:38:16;;;;;;;30.10;27.80;;;;;;;;;;5020549;28;20992;-80
2023/04/06 13:40:44;;;;;;;31.43;28.83;;;;;;;;;;5021141;28;20473;-81
2023/04/06 13:43:11;;;;;;;30.97;28.57;;;;;;;;;;5028000;28;20487;-80
2023/04/06 13:45:39;;;;;;;31.30;29.10;;;;;;;;;;5024542;28;20411;-80
2023/04/06 13:48:07;;;;;;;31.50;28.90;;;;;;;;;;5023986;28;20470;-80
2023/04/06 13:50:34;;;;;;;31.23;28.67;;;;;;;;;;5025209;28;20452;-80
2023/04/06 13:53:02;;;;;;;30.20;27.80;;;;;;;;;;5023895;28;20464;-80
2023/04/06 13:55:30;;;;;;;30.53;28.27;;;;;;;;;;5024208;28;20431;-80
2023/04/06 13:57:57;;;;;;;31.87;29.03;;;;;;;;;;5023798;28;20579;-81
2023/04/06 14:00:24;;;;;;;31.27;28.80;;;;;;;;;;5021691;28;20921;-80
2023/04/06 14:02:55;;;;;;;32.80;30.20;;;;;;;;;;5022396;28;20434;-80
2023/04/06 14:05:23;;;;;;;31.67;29.07;;;;;;;;;;5023149;28;20994;-81
2023/04/06 14:07:51;;;;;;;32.77;30.27;;;;;;;;;;5024395;28;20455;-79
2023/04/06 14:10:20;;;;;;;31.90;29.40;;;;;;;;;;5025241;28;20422;-80
2023/04/06 14:12:47;;;;;;;35.17;32.10;;;;;;;;;;5024868;28;20463;-79
2023/04/06 14:15:15;;;;;;;31.07;28.47;;;;;;;;;;5022684;28;20464;-79
2023/04/06 14:17:42;;;;;;;31.57;29.30;;;;;;;;;;5024575;28;20450;-79